createdAt,value
2023-02-08T00:01:51.453Z,16.50
2023-02-08T00:04:19.759Z,16.60
2023-02-08T00:06:50.008Z,14.60
2023-02-08T00:09:18.217Z,17.30
2023-02-08T00:11:46.296Z,16.60
2023-02-08T00:14:14.873Z,17.40
2023-02-08T00:16:43.102Z,16.40
2023-02-08T00:19:11.261Z,16.50
2023-02-08T00:21:39.622Z,19.00
2023-02-08T00:24:11.160Z,32.40
2023-02-08T00:26:39.590Z,38.70
2023-02-08T00:29:07.632Z,38.00
2023-02-08T00:31:40.045Z,40.60
2023-02-08T00:34:08.282Z,43.80
2023-02-08T00:36:36.658Z,62.80
2023-02-08T00:39:04.831Z,56.50
2023-02-08T00:41:33.370Z,59.50
2023-02-08T00:44:01.434Z,48.90
2023-02-08T00:46:30.452Z,46.60
2023-02-08T00:48:58.547Z,45.30
2023-02-08T00:51:27.359Z,41.20
2023-02-08T00:53:55.474Z,37.30
2023-02-08T00:56:24.278Z,35.50
2023-02-08T00:58:53.125Z,38.80
2023-02-08T01:01:21.206Z,42.80
2023-02-08T01:03:49.331Z,37.20
2023-02-08T01:06:19.647Z,37.10
2023-02-08T01:08:48.331Z,37.50
2023-02-08T01:11:22.442Z,38.50
2023-02-08T01:13:51.305Z,40.20
2023-02-08T01:16:21.470Z,36.70
2023-02-08T01:18:51.383Z,39.50
2023-02-08T01:21:24.155Z,43.50
2023-02-08T01:23:52.844Z,46.20
2023-02-08T01:26:21.727Z,41.00
2023-02-08T01:28:50.182Z,45.50
2023-02-08T01:31:20.413Z,49.00
2023-02-08T01:33:48.900Z,53.30
2023-02-08T01:36:17.318Z,49.70
2023-02-08T01:38:46.839Z,40.50
2023-02-08T01:41:20.235Z,36.70
2023-02-08T01:44:13.962Z,32.00
2023-02-08T01:46:43.880Z,34.70
2023-02-08T01:49:15.571Z,31.30
2023-02-08T01:51:56.285Z,27.60
2023-02-08T01:54:25.089Z,24.50
2023-02-08T01:56:53.479Z,24.10
2023-02-08T01:59:26.604Z,25.70
2023-02-08T02:01:56.595Z,23.80
2023-02-08T02:04:24.878Z,23.60
2023-02-08T02:06:54.817Z,20.70
2023-02-08T02:09:44.150Z,28.50
2023-02-08T02:12:15.599Z,34.20
2023-02-08T02:14:44.066Z,31.10
2023-02-08T02:17:13.836Z,25.60
2023-02-08T02:19:48.880Z,23.30
2023-02-08T02:22:32.098Z,25.00
2023-02-08T02:25:18.778Z,24.80
2023-02-08T02:28:14.841Z,20.80
2023-02-08T02:30:59.376Z,21.20
2023-02-08T02:33:34.295Z,22.60
2023-02-08T02:36:11.796Z,20.80
2023-02-08T02:39:23.908Z,20.70
2023-02-08T02:42:20.333Z,19.20
2023-02-08T02:45:03.463Z,19.50
2023-02-08T02:47:52.985Z,20.90
2023-02-08T02:50:27.641Z,20.60
2023-02-08T02:53:04.883Z,21.20
2023-02-08T02:55:34.290Z,20.30
2023-02-08T02:58:02.826Z,21.50
2023-02-08T03:00:31.146Z,21.10
2023-02-08T03:02:59.311Z,20.80
2023-02-08T03:05:28.411Z,23.00
2023-02-08T03:08:16.724Z,20.20
2023-02-08T03:10:58.394Z,20.90
2023-02-08T03:14:16.843Z,20.20
2023-02-08T03:17:08.752Z,21.00
2023-02-08T03:19:39.812Z,21.10
2023-02-08T03:22:36.299Z,20.80
2023-02-08T03:25:22.484Z,20.30
2023-02-08T03:28:00.955Z,22.10
2023-02-08T03:30:46.041Z,21.40
2023-02-08T03:33:21.665Z,22.10
2023-02-08T03:36:08.558Z,21.40
2023-02-08T03:38:39.761Z,20.70
2023-02-08T03:41:10.295Z,22.50
2023-02-08T03:43:46.715Z,20.00
2023-02-08T03:46:21.969Z,22.60
2023-02-08T03:48:54.414Z,24.00
2023-02-08T03:51:22.571Z,23.40
2023-02-08T03:53:50.749Z,26.60
2023-02-08T03:56:25.800Z,23.10
2023-02-08T03:59:00.130Z,24.40
2023-02-08T04:01:34.022Z,26.90
2023-02-08T04:04:02.385Z,26.80
2023-02-08T04:06:30.770Z,25.80
2023-02-08T04:08:58.960Z,27.30
2023-02-08T04:11:28.906Z,26.30
2023-02-08T04:13:58.065Z,28.40
2023-02-08T04:16:26.170Z,25.50
2023-02-08T04:18:54.195Z,27.40
2023-02-08T04:21:22.258Z,26.80
2023-02-08T04:23:50.414Z,29.20
2023-02-08T04:26:18.684Z,30.10
2023-02-08T04:28:46.765Z,28.80
2023-02-08T04:31:15.236Z,25.60
2023-02-08T04:33:43.376Z,27.60
2023-02-08T04:36:11.589Z,28.80
2023-02-08T04:38:40.298Z,28.40
2023-02-08T04:41:08.413Z,27.50
2023-02-08T04:43:37.066Z,26.00
2023-02-08T04:46:05.365Z,26.40
2023-02-08T04:48:33.591Z,24.80
2023-02-08T04:51:02.105Z,26.30
2023-02-08T04:53:31.717Z,25.40
2023-02-08T04:55:59.891Z,26.80
2023-02-08T04:58:27.981Z,26.10
2023-02-08T05:00:56.525Z,29.20
2023-02-08T05:03:25.378Z,34.30
2023-02-08T05:05:58.390Z,31.60
2023-02-08T05:08:26.685Z,34.50
2023-02-08T05:10:55.920Z,34.00
2023-02-08T05:13:24.697Z,38.80
2023-02-08T05:15:53.410Z,34.60
2023-02-08T05:18:22.314Z,31.40
2023-02-08T05:20:57.665Z,26.40
2023-02-08T05:23:26.481Z,26.70
2023-02-08T05:25:55.217Z,25.00
2023-02-08T05:28:24.115Z,24.20
2023-02-08T05:30:52.312Z,24.00
2023-02-08T05:33:20.472Z,25.30
2023-02-08T05:35:48.826Z,28.00
2023-02-08T05:38:16.897Z,26.30
2023-02-08T05:40:45.267Z,27.20
2023-02-08T05:43:13.371Z,28.90
2023-02-08T05:45:42.168Z,26.60
2023-02-08T05:48:10.275Z,28.10
2023-02-08T05:50:38.904Z,31.00
2023-02-08T05:53:11.328Z,34.90
2023-02-08T05:55:39.493Z,34.20
2023-02-08T05:58:07.515Z,36.00
2023-02-08T06:00:35.984Z,38.20
2023-02-08T06:03:04.308Z,39.50
2023-02-08T06:05:32.626Z,41.50
2023-02-08T06:08:00.788Z,36.90
2023-02-08T06:10:28.874Z,36.50
2023-02-08T06:12:56.981Z,34.80
2023-02-08T06:15:25.343Z,33.00
2023-02-08T06:17:53.653Z,30.20
2023-02-08T06:20:21.829Z,35.00
2023-02-08T06:22:50.796Z,31.50
2023-02-08T06:25:18.943Z,31.70
2023-02-08T06:27:47.534Z,39.10
2023-02-08T06:30:15.722Z,42.80
2023-02-08T06:32:43.871Z,44.70
2023-02-08T06:35:12.022Z,40.40
2023-02-08T06:37:40.389Z,35.60
2023-02-08T06:40:09.089Z,38.40
2023-02-08T06:42:37.977Z,38.60
2023-02-08T06:45:10.585Z,40.00
2023-02-08T06:47:39.756Z,42.20
2023-02-08T06:50:08.556Z,41.60
2023-02-08T06:52:36.838Z,43.00
2023-02-08T06:55:05.259Z,45.70
2023-02-08T06:57:33.959Z,48.40
2023-02-08T07:00:02.570Z,47.00
2023-02-08T07:02:31.256Z,51.70
2023-02-08T07:04:59.632Z,48.20
2023-02-08T07:07:27.939Z,42.80
2023-02-08T07:09:56.085Z,41.50
2023-02-08T07:12:24.246Z,38.00
2023-02-08T07:14:52.558Z,41.00
2023-02-08T07:17:20.621Z,37.60
2023-02-08T07:19:50.853Z,41.90
2023-02-08T07:22:18.957Z,39.20
2023-02-08T07:24:47.133Z,35.80
2023-02-08T07:27:15.854Z,38.60
2023-02-08T07:29:44.401Z,38.20
2023-02-08T07:32:13.560Z,37.10
2023-02-08T07:34:42.366Z,33.60
2023-02-08T07:37:10.493Z,36.10
2023-02-08T07:39:38.988Z,35.80
2023-02-08T07:42:08.776Z,37.60
2023-02-08T07:44:40.959Z,32.60
2023-02-08T07:47:09.496Z,32.60
2023-02-08T07:49:38.037Z,35.40
2023-02-08T07:52:06.095Z,35.30
2023-02-08T07:54:35.055Z,32.70
2023-02-08T07:57:03.818Z,37.70
2023-02-08T07:59:32.243Z,30.80
2023-02-08T08:02:02.074Z,32.30
2023-02-08T08:04:30.574Z,30.40
2023-02-08T08:06:59.059Z,37.70
2023-02-08T08:09:28.194Z,34.30
2023-02-08T08:11:56.342Z,31.30
2023-02-08T08:14:25.294Z,34.90
2023-02-08T08:16:53.367Z,34.40
2023-02-08T08:19:24.526Z,45.10
2023-02-08T08:21:52.672Z,37.10
2023-02-08T08:24:20.878Z,34.60
2023-02-08T08:26:49.763Z,39.70
2023-02-08T08:29:18.328Z,29.50
2023-02-08T08:31:46.663Z,31.00
2023-02-08T08:34:15.025Z,32.30
2023-02-08T08:36:43.151Z,36.80
2023-02-08T08:39:11.439Z,36.10
2023-02-08T08:41:39.901Z,41.20
2023-02-08T08:44:08.056Z,41.80
2023-02-08T08:46:36.272Z,38.60
2023-02-08T08:49:04.569Z,38.20
2023-02-08T08:51:35.537Z,39.90
2023-02-08T08:54:04.754Z,36.30
2023-02-08T08:56:33.016Z,37.50
2023-02-08T08:59:01.096Z,37.40
2023-02-08T09:01:31.418Z,37.30
2023-02-08T09:04:00.684Z,37.70
2023-02-08T09:06:29.111Z,36.30
2023-02-08T09:09:01.743Z,30.10
2023-02-08T09:11:30.045Z,28.80
2023-02-08T09:13:58.845Z,27.20
2023-02-08T09:16:27.023Z,30.40
2023-02-08T09:18:55.171Z,31.10
2023-02-08T09:21:25.461Z,44.60
2023-02-08T09:23:53.720Z,34.10
2023-02-08T09:26:23.424Z,27.40
2023-02-08T09:28:51.638Z,33.00
2023-02-08T09:31:27.648Z,34.20
2023-02-08T09:34:00.262Z,31.40
2023-02-08T09:36:30.366Z,32.10
2023-02-08T09:39:01.812Z,37.70
2023-02-08T09:42:03.850Z,39.50
2023-02-08T09:44:47.148Z,30.40
2023-02-08T09:47:23.118Z,30.60
2023-02-08T09:50:12.354Z,31.80
2023-02-08T09:52:56.576Z,31.60
2023-02-08T09:55:30.152Z,33.40
2023-02-08T09:57:58.449Z,29.30
2023-02-08T10:00:39.488Z,24.20
2023-02-08T10:03:19.331Z,25.30
2023-02-08T10:05:48.211Z,23.60
2023-02-08T10:08:16.336Z,27.20
2023-02-08T10:10:55.465Z,27.30
2023-02-08T10:13:52.409Z,23.00
2023-02-08T10:16:20.736Z,20.10
2023-02-08T10:18:58.510Z,20.40
2023-02-08T10:21:30.546Z,19.90
2023-02-08T10:24:08.810Z,18.70
2023-02-08T10:26:48.117Z,21.90
2023-02-08T10:29:29.409Z,20.90
2023-02-08T10:32:36.306Z,19.10
2023-02-08T10:35:07.569Z,21.00
2023-02-08T10:37:38.806Z,20.80
2023-02-08T10:40:18.870Z,17.00
2023-02-08T10:43:25.619Z,19.60
2023-02-08T10:46:05.940Z,21.40
2023-02-08T10:48:36.972Z,19.70
2023-02-08T10:51:05.179Z,17.40
2023-02-08T10:53:33.798Z,20.90
2023-02-08T10:56:01.906Z,19.60
2023-02-08T10:58:33.950Z,20.00
2023-02-08T11:01:02.174Z,21.40
2023-02-08T11:03:30.520Z,21.60
2023-02-08T11:05:58.839Z,20.90
2023-02-08T11:08:28.879Z,20.20
2023-02-08T11:11:00.405Z,20.10
2023-02-08T11:13:37.408Z,23.50
2023-02-08T11:16:26.469Z,19.10
2023-02-08T11:18:57.044Z,19.70
2023-02-08T11:21:33.759Z,19.90
2023-02-08T11:24:23.978Z,19.40
2023-02-08T11:26:52.129Z,20.50
2023-02-08T11:29:26.449Z,19.30
2023-02-08T11:31:59.192Z,24.80
2023-02-08T11:34:32.924Z,21.10
2023-02-08T11:37:02.992Z,22.00
2023-02-08T11:39:51.737Z,21.20
2023-02-08T11:42:26.631Z,17.80
2023-02-08T11:44:55.690Z,23.00
2023-02-08T11:47:25.765Z,21.80
2023-02-08T11:49:55.382Z,22.60
2023-02-08T11:52:25.767Z,24.10
2023-02-08T11:54:55.069Z,27.00
2023-02-08T11:57:27.988Z,25.60
2023-02-08T12:00:20.266Z,27.20
2023-02-08T12:02:50.864Z,24.70
2023-02-08T12:05:24.403Z,22.80
2023-02-08T12:08:08.050Z,23.40
2023-02-08T12:10:45.660Z,21.90
2023-02-08T12:13:38.884Z,27.10
2023-02-08T12:16:20.306Z,24.40
2023-02-08T12:19:04.983Z,22.70
2023-02-08T12:21:44.062Z,21.70
2023-02-08T12:24:24.449Z,21.80
2023-02-08T12:27:08.153Z,22.90
2023-02-08T12:29:47.252Z,27.80
2023-02-08T12:32:49.832Z,26.90
2023-02-08T12:35:54.050Z,27.00
2023-02-08T12:38:46.721Z,29.60
2023-02-08T12:41:39.193Z,24.10
2023-02-08T12:44:27.484Z,20.60
2023-02-08T12:47:13.012Z,20.50
2023-02-08T12:49:56.052Z,20.00
2023-02-08T12:52:41.702Z,21.10
2023-02-08T12:55:22.990Z,19.80
2023-02-08T12:57:53.554Z,22.20
2023-02-08T13:00:29.550Z,23.10
2023-02-08T13:03:25.045Z,17.40
2023-02-08T13:06:02.159Z,23.00
2023-02-08T13:08:50.635Z,17.70
2023-02-08T13:11:21.877Z,19.40
2023-02-08T13:13:57.942Z,28.10
2023-02-08T13:16:30.136Z,29.00
2023-02-08T13:19:21.787Z,27.60
2023-02-08T13:21:50.724Z,22.20
2023-02-08T13:24:39.104Z,19.00
2023-02-08T13:27:08.725Z,20.10
2023-02-08T13:29:37.499Z,25.50
2023-02-08T13:32:17.560Z,35.30
2023-02-08T13:34:49.304Z,24.40
2023-02-08T13:37:27.293Z,23.10
2023-02-08T13:40:30.234Z,23.20
2023-02-08T13:43:01.337Z,22.80
2023-02-08T13:45:29.455Z,27.80
2023-02-08T13:47:59.856Z,30.00
2023-02-08T13:50:33.646Z,52.20
2023-02-08T13:53:02.892Z,33.10
2023-02-08T13:55:35.926Z,34.80
2023-02-08T13:58:16.166Z,29.60
2023-02-08T14:01:01.176Z,22.90
2023-02-08T14:03:33.280Z,19.50
2023-02-08T14:06:19.251Z,23.20
2023-02-08T14:08:56.542Z,20.50
2023-02-08T14:11:42.995Z,25.20
2023-02-08T14:14:23.373Z,23.90
2023-02-08T14:17:09.725Z,24.70
2023-02-08T14:19:42.675Z,29.10
2023-02-08T14:22:13.948Z,27.10
2023-02-08T14:24:50.439Z,48.70
2023-02-08T14:27:22.778Z,61.20
2023-02-08T14:30:03.065Z,82.50
2023-02-08T14:35:15.821Z,39.70
2023-02-08T14:37:44.517Z,30.60
2023-02-08T14:40:24.491Z,26.20
2023-02-08T14:46:37.785Z,20.70
2023-02-08T14:49:13.863Z,22.40
2023-02-08T14:51:50.494Z,19.60
2023-02-08T14:54:25.916Z,17.80
2023-02-08T14:56:57.668Z,18.60
2023-02-08T14:59:27.660Z,21.70
2023-02-08T15:02:11.544Z,25.20
2023-02-08T15:04:44.345Z,29.90
2023-02-08T15:07:44.760Z,27.90
2023-02-08T15:10:14.231Z,31.10
2023-02-08T15:12:44.418Z,27.60
2023-02-08T15:15:28.786Z,25.80
2023-02-08T15:17:57.233Z,26.80
2023-02-08T15:20:31.455Z,26.20
2023-02-08T15:23:19.592Z,26.60
2023-02-08T15:26:04.527Z,22.50
2023-02-08T15:28:35.483Z,20.20
2023-02-08T15:31:10.316Z,20.40
2023-02-08T15:33:38.934Z,30.60
2023-02-08T15:36:08.902Z,71.20
2023-02-08T15:38:38.663Z,49.40
2023-02-08T15:41:10.371Z,41.20
2023-02-08T15:43:39.807Z,43.60
2023-02-08T15:46:21.374Z,45.90
2023-02-08T15:48:52.772Z,44.40
2023-02-08T15:51:23.206Z,44.30
2023-02-08T15:53:52.856Z,37.40
2023-02-08T15:56:37.181Z,35.60
2023-02-08T15:59:06.634Z,33.50
2023-02-08T16:01:35.164Z,33.00
2023-02-08T16:04:06.251Z,26.90
2023-02-08T16:09:07.020Z,26.90
2023-02-08T16:11:36.018Z,29.50
2023-02-08T16:14:05.659Z,30.90
2023-02-08T16:16:40.403Z,33.60
2023-02-08T16:19:29.053Z,39.40
2023-02-08T16:22:21.595Z,38.70
2023-02-08T16:24:51.111Z,36.80
2023-02-08T16:27:30.115Z,34.30
2023-02-08T16:29:59.483Z,30.80
2023-02-08T16:32:29.814Z,29.60
2023-02-08T16:34:58.058Z,28.00
2023-02-08T16:37:33.193Z,29.10
2023-02-08T16:40:03.155Z,34.60
2023-02-08T16:42:33.992Z,36.00
2023-02-08T16:45:12.907Z,49.80
2023-02-08T16:47:52.170Z,45.70
2023-02-08T16:50:28.011Z,44.10
2023-02-08T16:52:59.721Z,38.00
2023-02-08T16:55:31.387Z,32.30
2023-02-08T16:57:59.838Z,38.80
2023-02-08T17:00:30.112Z,42.80
2023-02-08T17:02:59.235Z,81.50
2023-02-08T17:05:32.055Z,70.10
2023-02-08T17:08:00.817Z,44.30
2023-02-08T17:10:32.448Z,41.40
2023-02-08T17:13:19.383Z,36.70
2023-02-08T17:15:49.947Z,36.80
2023-02-08T17:18:18.523Z,49.50
2023-02-08T17:20:47.009Z,49.50
2023-02-08T17:23:16.189Z,64.10
2023-02-08T17:25:44.775Z,68.80
2023-02-08T17:28:51.252Z,76.50
2023-02-08T17:32:13.631Z,73.60
2023-02-08T17:38:19.674Z,41.40
2023-02-08T17:40:47.405Z,41.00
2023-02-08T17:43:14.437Z,40.80
2023-02-08T17:45:45.511Z,32.50
2023-02-08T17:48:12.920Z,29.20
2023-02-08T17:51:21.617Z,29.10
2023-02-08T17:53:49.483Z,30.00
2023-02-08T17:56:21.579Z,29.90
2023-02-08T17:58:51.436Z,29.30
2023-02-08T18:01:24.469Z,30.50
2023-02-08T18:03:52.627Z,29.80
2023-02-08T18:06:21.247Z,37.20
2023-02-08T18:08:48.880Z,38.60
2023-02-08T18:11:20.165Z,42.70
2023-02-08T18:13:48.200Z,43.60
2023-02-08T18:16:23.206Z,57.70
2023-02-08T18:18:50.427Z,55.00
2023-02-08T18:21:21.569Z,55.70
2023-02-08T18:26:19.920Z,52.10
2023-02-08T18:28:50.737Z,60.00
2023-02-08T18:31:19.631Z,53.10
2023-02-08T18:33:47.852Z,50.90
2023-02-08T18:36:15.670Z,50.40
2023-02-08T18:39:04.865Z,49.30
2023-02-08T18:41:32.233Z,50.60
2023-02-08T18:43:59.936Z,54.40
2023-02-08T18:46:29.875Z,57.40
2023-02-08T18:48:59.763Z,60.00
2023-02-08T18:51:27.152Z,62.60
2023-02-08T18:53:56.922Z,60.90
2023-02-08T18:56:25.372Z,57.00
2023-02-08T18:59:12.501Z,53.20
2023-02-08T19:01:41.526Z,58.20
2023-02-08T19:04:09.300Z,52.80
2023-02-08T19:06:36.400Z,58.00
2023-02-08T19:09:06.941Z,57.30
2023-02-08T19:11:35.649Z,63.10
2023-02-08T19:14:08.052Z,65.40
2023-02-08T19:16:36.144Z,69.10
2023-02-08T19:19:04.205Z,81.20
2023-02-08T19:21:32.379Z,92.00
2023-02-08T19:24:02.405Z,90.40
2023-02-08T19:26:36.357Z,87.80
2023-02-08T19:29:03.543Z,83.80
2023-02-08T19:31:30.803Z,80.20
2023-02-08T19:34:03.271Z,71.80
2023-02-08T19:36:37.240Z,73.80
2023-02-08T19:39:05.072Z,73.70
2023-02-08T19:41:37.719Z,81.00
2023-02-08T19:44:06.377Z,93.90
2023-02-08T19:46:34.622Z,98.10
2023-02-08T19:49:02.636Z,99.10
2023-02-08T19:51:32.421Z,97.10
2023-02-08T19:54:01.593Z,95.30
2023-02-08T19:56:33.671Z,86.20
2023-02-08T19:59:03.475Z,75.60
2023-02-08T20:01:32.577Z,66.00
2023-02-08T20:03:59.966Z,69.40
2023-02-08T20:06:28.839Z,66.40
2023-02-08T20:08:55.683Z,68.50
2023-02-08T20:11:24.505Z,71.40
2023-02-08T20:13:52.204Z,80.20
2023-02-08T20:16:19.927Z,83.40
2023-02-08T20:18:47.405Z,76.40
2023-02-08T20:21:16.222Z,70.20
2023-02-08T20:23:43.212Z,64.00
2023-02-08T20:26:19.201Z,62.50
2023-02-08T20:28:54.102Z,63.00
2023-02-08T20:31:27.137Z,72.80
2023-02-08T20:33:55.322Z,69.90
2023-02-08T20:39:48.332Z,80.50
2023-02-08T20:42:16.562Z,87.60
2023-02-08T20:44:44.698Z,91.60
2023-02-08T20:47:14.261Z,90.50
2023-02-08T20:49:43.680Z,92.50
2023-02-08T20:52:12.306Z,95.10
2023-02-08T20:54:42.486Z,95.10
2023-02-08T20:57:18.407Z,81.50
2023-02-08T20:59:50.138Z,91.40
2023-02-08T21:02:22.545Z,85.00
2023-02-08T21:04:50.721Z,75.60
2023-02-08T21:07:18.962Z,71.20
2023-02-08T21:09:47.497Z,73.70
2023-02-08T21:12:16.284Z,71.90
2023-02-08T21:14:45.001Z,67.80
2023-02-08T21:17:18.625Z,65.40
2023-02-08T21:19:47.844Z,56.90
2023-02-08T21:22:17.244Z,53.70
2023-02-08T21:24:45.661Z,53.10
2023-02-08T21:27:13.771Z,51.40
2023-02-08T21:29:41.970Z,53.50
2023-02-08T21:32:10.298Z,55.50
2023-02-08T21:34:39.875Z,56.10
2023-02-08T21:37:08.008Z,57.60
2023-02-08T21:39:36.499Z,59.50
2023-02-08T21:42:05.001Z,59.60
2023-02-08T21:44:35.299Z,55.70
2023-02-08T21:47:03.755Z,52.40
2023-02-08T21:49:50.942Z,52.10
2023-02-08T21:52:37.524Z,44.70
2023-02-08T21:55:06.404Z,43.50
2023-02-08T21:57:39.973Z,47.60
2023-02-08T22:00:10.418Z,49.60
2023-02-08T22:02:41.891Z,51.70
2023-02-08T22:05:28.547Z,54.70
2023-02-08T22:07:59.847Z,56.50
2023-02-08T22:10:29.337Z,57.40
2023-02-08T22:12:58.070Z,57.50
2023-02-08T22:15:27.977Z,57.70
2023-02-08T22:18:00.624Z,63.60
2023-02-08T22:20:30.055Z,70.30
2023-02-08T22:22:58.842Z,72.40
2023-02-08T22:25:27.720Z,73.10
2023-02-08T22:27:55.850Z,76.20
2023-02-08T22:30:25.650Z,74.10
2023-02-08T22:32:54.011Z,76.50
2023-02-08T22:35:22.877Z,76.10
2023-02-08T22:37:51.107Z,76.10
2023-02-08T22:40:19.444Z,73.90
2023-02-08T22:42:47.684Z,63.40
2023-02-08T22:45:15.873Z,62.80
2023-02-08T22:47:45.997Z,56.30
2023-02-08T22:50:14.749Z,76.00
2023-02-08T22:52:43.656Z,74.60
2023-02-08T22:55:14.060Z,73.80
2023-02-08T22:57:43.648Z,61.00
2023-02-08T23:00:14.254Z,58.20
2023-02-08T23:02:43.273Z,52.00
2023-02-08T23:05:11.458Z,50.20
2023-02-08T23:07:40.366Z,44.80
2023-02-08T23:10:11.500Z,42.30
2023-02-08T23:12:40.008Z,48.10
2023-02-08T23:15:10.551Z,45.70
2023-02-08T23:17:38.749Z,43.50
2023-02-08T23:20:07.424Z,45.90
2023-02-08T23:22:38.700Z,43.80
2023-02-08T23:25:07.146Z,44.00
2023-02-08T23:27:36.902Z,45.20
2023-02-08T23:30:07.854Z,43.20
2023-02-08T23:32:37.936Z,40.60
2023-02-08T23:35:08.427Z,41.80
2023-02-08T23:37:36.663Z,39.60
2023-02-08T23:40:05.260Z,38.10
2023-02-08T23:42:33.771Z,40.90
2023-02-08T23:45:02.744Z,42.40
2023-02-08T23:47:31.495Z,43.80
2023-02-08T23:49:59.550Z,44.10
2023-02-08T23:52:27.995Z,40.70
2023-02-08T23:54:56.228Z,39.90
2023-02-08T23:57:24.425Z,38.50
2023-02-08T23:59:52.513Z,39.50
